sensor_id;sensor_type;location;lat;lon;timestamp;P1;durP1;ratioP1;P2;durP2;ratioP2
44000;SDS011;29660;42.892;24.710;2023-11-21T00:04:51;81.38;;;52.95;;
44000;SDS011;29660;42.892;24.710;2023-11-21T00:10:14;66.90;;;46.45;;
44000;SDS011;29660;42.892;24.710;2023-11-21T00:15:36;68.60;;;45.55;;
44000;SDS011;29660;42.892;24.710;2023-11-21T00:20:58;60.70;;;40.72;;
44000;SDS011;29660;42.892;24.710;2023-11-21T00:26:21;73.20;;;44.30;;
44000;SDS011;29660;42.892;24.710;2023-11-21T00:31:52;120.57;;;67.80;;
44000;SDS011;29660;42.892;24.710;2023-11-21T00:37:15;72.15;;;42.00;;
44000;SDS011;29660;42.892;24.710;2023-11-21T00:42:37;62.10;;;37.92;;
44000;SDS011;29660;42.892;24.710;2023-11-21T00:47:59;61.85;;;40.65;;
44000;SDS011;29660;42.892;24.710;2023-11-21T00:53:21;56.78;;;36.30;;
44000;SDS011;29660;42.892;24.710;2023-11-21T00:58:44;54.30;;;34.90;;
44000;SDS011;29660;42.892;24.710;2023-11-21T01:04:08;49.40;;;32.70;;
44000;SDS011;29660;42.892;24.710;2023-11-21T01:09:30;35.40;;;25.25;;
44000;SDS011;29660;42.892;24.710;2023-11-21T01:14:53;29.05;;;19.95;;
44000;SDS011;29660;42.892;24.710;2023-11-21T01:20:15;46.45;;;32.17;;
44000;SDS011;29660;42.892;24.710;2023-11-21T01:25:37;53.17;;;33.22;;
44000;SDS011;29660;42.892;24.710;2023-11-21T01:30:59;57.00;;;36.42;;
44000;SDS011;29660;42.892;24.710;2023-11-21T01:36:21;52.15;;;33.70;;
44000;SDS011;29660;42.892;24.710;2023-11-21T01:41:44;42.97;;;27.83;;
44000;SDS011;29660;42.892;24.710;2023-11-21T01:47:06;34.80;;;24.08;;
44000;SDS011;29660;42.892;24.710;2023-11-21T01:52:29;34.97;;;22.30;;
44000;SDS011;29660;42.892;24.710;2023-11-21T01:57:52;20.52;;;14.02;;
44000;SDS011;29660;42.892;24.710;2023-11-21T02:03:15;33.17;;;19.98;;
44000;SDS011;29660;42.892;24.710;2023-11-21T02:08:37;29.13;;;19.15;;
44000;SDS011;29660;42.892;24.710;2023-11-21T02:13:59;33.92;;;21.95;;
44000;SDS011;29660;42.892;24.710;2023-11-21T02:19:22;141.07;;;64.45;;
44000;SDS011;29660;42.892;24.710;2023-11-21T02:24:47;135.10;;;57.78;;
44000;SDS011;29660;42.892;24.710;2023-11-21T02:30:09;87.07;;;41.88;;
44000;SDS011;29660;42.892;24.710;2023-11-21T02:35:35;86.85;;;41.90;;
44000;SDS011;29660;42.892;24.710;2023-11-21T02:40:57;87.38;;;42.03;;
44000;SDS011;29660;42.892;24.710;2023-11-21T02:46:21;68.20;;;34.75;;
44000;SDS011;29660;42.892;24.710;2023-11-21T02:51:43;94.78;;;43.03;;
44000;SDS011;29660;42.892;24.710;2023-11-21T02:57:06;68.68;;;33.17;;
44000;SDS011;29660;42.892;24.710;2023-11-21T03:02:29;36.28;;;22.63;;
44000;SDS011;29660;42.892;24.710;2023-11-21T03:07:51;38.95;;;22.73;;
44000;SDS011;29660;42.892;24.710;2023-11-21T03:13:13;24.23;;;17.40;;
44000;SDS011;29660;42.892;24.710;2023-11-21T03:18:36;24.40;;;16.02;;
44000;SDS011;29660;42.892;24.710;2023-11-21T03:23:59;23.55;;;15.57;;
44000;SDS011;29660;42.892;24.710;2023-11-21T03:29:22;114.90;;;43.78;;
44000;SDS011;29660;42.892;24.710;2023-11-21T03:34:53;98.93;;;43.13;;
44000;SDS011;29660;42.892;24.710;2023-11-21T03:40:18;56.78;;;27.63;;
44000;SDS011;29660;42.892;24.710;2023-11-21T03:45:40;24.13;;;15.23;;
44000;SDS011;29660;42.892;24.710;2023-11-21T03:51:02;26.02;;;16.42;;
44000;SDS011;29660;42.892;24.710;2023-11-21T03:56:25;77.88;;;40.22;;
44000;SDS011;29660;42.892;24.710;2023-11-21T04:01:47;43.63;;;25.52;;
44000;SDS011;29660;42.892;24.710;2023-11-21T04:07:10;40.97;;;26.35;;
44000;SDS011;29660;42.892;24.710;2023-11-21T04:12:32;41.50;;;25.30;;
44000;SDS011;29660;42.892;24.710;2023-11-21T04:17:54;42.97;;;27.67;;
44000;SDS011;29660;42.892;24.710;2023-11-21T04:23:18;45.78;;;29.63;;
44000;SDS011;29660;42.892;24.710;2023-11-21T04:28:40;37.42;;;25.90;;
44000;SDS011;29660;42.892;24.710;2023-11-21T04:34:03;42.17;;;25.70;;
44000;SDS011;29660;42.892;24.710;2023-11-21T04:39:28;31.77;;;21.05;;
44000;SDS011;29660;42.892;24.710;2023-11-21T04:44:50;40.17;;;27.50;;
44000;SDS011;29660;42.892;24.710;2023-11-21T04:50:14;51.92;;;34.10;;
44000;SDS011;29660;42.892;24.710;2023-11-21T04:55:36;40.95;;;31.15;;
44000;SDS011;29660;42.892;24.710;2023-11-21T05:00:58;37.97;;;29.85;;
44000;SDS011;29660;42.892;24.710;2023-11-21T05:06:20;34.33;;;25.08;;
44000;SDS011;29660;42.892;24.710;2023-11-21T05:11:42;26.77;;;20.80;;
44000;SDS011;29660;42.892;24.710;2023-11-21T05:17:05;32.13;;;23.13;;
44000;SDS011;29660;42.892;24.710;2023-11-21T05:22:27;41.60;;;32.72;;
44000;SDS011;29660;42.892;24.710;2023-11-21T05:27:49;57.22;;;42.70;;
44000;SDS011;29660;42.892;24.710;2023-11-21T05:33:11;74.57;;;50.78;;
44000;SDS011;29660;42.892;24.710;2023-11-21T05:38:34;61.75;;;42.05;;
44000;SDS011;29660;42.892;24.710;2023-11-21T05:43:57;62.60;;;43.38;;
44000;SDS011;29660;42.892;24.710;2023-11-21T05:49:19;54.65;;;39.55;;
44000;SDS011;29660;42.892;24.710;2023-11-21T05:54:43;51.15;;;36.65;;
44000;SDS011;29660;42.892;24.710;2023-11-21T06:00:06;59.28;;;42.40;;
44000;SDS011;29660;42.892;24.710;2023-11-21T06:05:33;85.30;;;52.30;;
44000;SDS011;29660;42.892;24.710;2023-11-21T06:10:55;53.20;;;39.05;;
44000;SDS011;29660;42.892;24.710;2023-11-21T06:16:18;78.03;;;51.33;;
44000;SDS011;29660;42.892;24.710;2023-11-21T06:21:41;83.35;;;60.53;;
44000;SDS011;29660;42.892;24.710;2023-11-21T06:27:07;89.32;;;63.75;;
44000;SDS011;29660;42.892;24.710;2023-11-21T06:32:30;79.10;;;57.67;;
44000;SDS011;29660;42.892;24.710;2023-11-21T06:37:52;71.03;;;52.80;;
44000;SDS011;29660;42.892;24.710;2023-11-21T06:43:14;91.03;;;64.80;;
44000;SDS011;29660;42.892;24.710;2023-11-21T06:48:37;84.55;;;62.63;;
44000;SDS011;29660;42.892;24.710;2023-11-21T06:54:00;73.50;;;55.28;;
44000;SDS011;29660;42.892;24.710;2023-11-21T06:59:22;97.72;;;68.78;;
44000;SDS011;29660;42.892;24.710;2023-11-21T07:04:45;76.15;;;55.55;;
44000;SDS011;29660;42.892;24.710;2023-11-21T07:10:08;74.70;;;53.88;;
44000;SDS011;29660;42.892;24.710;2023-11-21T07:22:04;86.55;;;62.00;;
44000;SDS011;29660;42.892;24.710;2023-11-21T07:27:27;87.20;;;64.43;;
44000;SDS011;29660;42.892;24.710;2023-11-21T07:32:50;88.40;;;64.95;;
44000;SDS011;29660;42.892;24.710;2023-11-21T07:38:12;88.35;;;62.78;;
44000;SDS011;29660;42.892;24.710;2023-11-21T07:43:35;68.45;;;50.05;;
44000;SDS011;29660;42.892;24.710;2023-11-21T07:48:57;33.65;;;26.73;;
44000;SDS011;29660;42.892;24.710;2023-11-21T07:54:19;19.55;;;16.13;;
44000;SDS011;29660;42.892;24.710;2023-11-21T07:59:43;24.75;;;17.52;;
44000;SDS011;29660;42.892;24.710;2023-11-21T08:05:05;36.55;;;25.52;;
44000;SDS011;29660;42.892;24.710;2023-11-21T08:10:31;51.65;;;36.58;;
44000;SDS011;29660;42.892;24.710;2023-11-21T08:15:54;38.17;;;28.52;;
44000;SDS011;29660;42.892;24.710;2023-11-21T08:21:16;45.63;;;32.47;;
44000;SDS011;29660;42.892;24.710;2023-11-21T08:26:38;83.18;;;59.58;;
44000;SDS011;29660;42.892;24.710;2023-11-21T08:32:01;47.90;;;34.45;;
44000;SDS011;29660;42.892;24.710;2023-11-21T08:37:24;38.03;;;28.05;;
44000;SDS011;29660;42.892;24.710;2023-11-21T08:42:46;35.15;;;26.00;;
44000;SDS011;29660;42.892;24.710;2023-11-21T08:48:09;34.35;;;26.02;;
44000;SDS011;29660;42.892;24.710;2023-11-21T08:53:33;60.25;;;45.40;;
44000;SDS011;29660;42.892;24.710;2023-11-21T08:58:55;40.38;;;28.90;;
44000;SDS011;29660;42.892;24.710;2023-11-21T09:04:18;30.58;;;23.60;;
44000;SDS011;29660;42.892;24.710;2023-11-21T09:09:41;31.35;;;21.65;;
44000;SDS011;29660;42.892;24.710;2023-11-21T09:15:03;25.63;;;18.60;;
44000;SDS011;29660;42.892;24.710;2023-11-21T09:20:27;23.08;;;17.27;;
44000;SDS011;29660;42.892;24.710;2023-11-21T09:25:50;28.67;;;21.05;;
44000;SDS011;29660;42.892;24.710;2023-11-21T09:31:13;28.70;;;20.00;;
44000;SDS011;29660;42.892;24.710;2023-11-21T09:36:37;23.63;;;18.67;;
44000;SDS011;29660;42.892;24.710;2023-11-21T09:47:33;17.73;;;10.90;;
44000;SDS011;29660;42.892;24.710;2023-11-21T09:53:13;18.77;;;14.25;;
44000;SDS011;29660;42.892;24.710;2023-11-21T09:58:39;9.63;;;6.90;;
44000;SDS011;29660;42.892;24.710;2023-11-21T10:04:02;13.27;;;7.80;;
44000;SDS011;29660;42.892;24.710;2023-11-21T10:09:24;13.05;;;8.73;;
44000;SDS011;29660;42.892;24.710;2023-11-21T10:14:49;12.75;;;7.00;;
44000;SDS011;29660;42.892;24.710;2023-11-21T10:20:14;7.72;;;5.20;;
44000;SDS011;29660;42.892;24.710;2023-11-21T10:25:37;3.70;;;2.72;;
44000;SDS011;29660;42.892;24.710;2023-11-21T10:30:59;4.15;;;3.22;;
44000;SDS011;29660;42.892;24.710;2023-11-21T10:36:24;2.72;;;1.73;;
44000;SDS011;29660;42.892;24.710;2023-11-21T10:41:48;3.83;;;2.65;;
44000;SDS011;29660;42.892;24.710;2023-11-21T10:47:11;4.40;;;3.47;;
44000;SDS011;29660;42.892;24.710;2023-11-21T10:52:33;2.13;;;1.55;;
44000;SDS011;29660;42.892;24.710;2023-11-21T10:57:58;9.05;;;6.57;;
44000;SDS011;29660;42.892;24.710;2023-11-21T11:03:23;1.50;;;1.02;;
44000;SDS011;29660;42.892;24.710;2023-11-21T11:08:45;4.50;;;2.60;;
44000;SDS011;29660;42.892;24.710;2023-11-21T11:14:13;5.18;;;2.33;;
44000;SDS011;29660;42.892;24.710;2023-11-21T11:19:35;10.15;;;4.18;;
44000;SDS011;29660;42.892;24.710;2023-11-21T11:36:26;4.50;;;2.58;;
44000;SDS011;29660;42.892;24.710;2023-11-21T11:41:49;2.10;;;1.70;;
44000;SDS011;29660;42.892;24.710;2023-11-21T11:47:13;6.88;;;5.68;;
44000;SDS011;29660;42.892;24.710;2023-11-21T11:52:40;7.82;;;5.00;;
44000;SDS011;29660;42.892;24.710;2023-11-21T11:58:07;10.60;;;8.05;;
44000;SDS011;29660;42.892;24.710;2023-11-21T12:03:29;9.45;;;5.50;;
44000;SDS011;29660;42.892;24.710;2023-11-21T12:08:52;9.25;;;6.97;;
44000;SDS011;29660;42.892;24.710;2023-11-21T12:14:14;8.02;;;5.28;;
44000;SDS011;29660;42.892;24.710;2023-11-21T12:19:37;12.85;;;9.27;;
44000;SDS011;29660;42.892;24.710;2023-11-21T12:25:00;7.43;;;4.72;;
44000;SDS011;29660;42.892;24.710;2023-11-21T12:30:23;9.43;;;5.93;;
44000;SDS011;29660;42.892;24.710;2023-11-21T12:35:46;27.25;;;18.42;;
44000;SDS011;29660;42.892;24.710;2023-11-21T12:41:11;20.77;;;13.98;;
44000;SDS011;29660;42.892;24.710;2023-11-21T12:46:33;7.65;;;5.78;;
44000;SDS011;29660;42.892;24.710;2023-11-21T12:51:57;4.22;;;3.28;;
44000;SDS011;29660;42.892;24.710;2023-11-21T12:57:19;8.75;;;5.68;;
44000;SDS011;29660;42.892;24.710;2023-11-21T13:02:41;6.95;;;5.07;;
44000;SDS011;29660;42.892;24.710;2023-11-21T13:08:05;4.65;;;3.88;;
44000;SDS011;29660;42.892;24.710;2023-11-21T13:13:33;6.38;;;4.13;;
44000;SDS011;29660;42.892;24.710;2023-11-21T13:18:55;16.90;;;12.57;;
44000;SDS011;29660;42.892;24.710;2023-11-21T13:24:18;21.55;;;16.60;;
44000;SDS011;29660;42.892;24.710;2023-11-21T13:29:40;9.93;;;8.55;;
44000;SDS011;29660;42.892;24.710;2023-11-21T13:35:03;15.98;;;13.77;;
44000;SDS011;29660;42.892;24.710;2023-11-21T13:40:30;16.05;;;13.23;;
44000;SDS011;29660;42.892;24.710;2023-11-21T13:45:53;15.32;;;12.73;;
44000;SDS011;29660;42.892;24.710;2023-11-21T13:51:36;110.43;;;85.88;;
44000;SDS011;29660;42.892;24.710;2023-11-21T13:57:07;31.73;;;24.60;;
44000;SDS011;29660;42.892;24.710;2023-11-21T14:02:29;16.55;;;13.35;;
44000;SDS011;29660;42.892;24.710;2023-11-21T14:07:56;18.35;;;13.75;;
44000;SDS011;29660;42.892;24.710;2023-11-21T14:13:25;21.73;;;15.50;;
44000;SDS011;29660;42.892;24.710;2023-11-21T14:18:47;24.02;;;19.35;;
44000;SDS011;29660;42.892;24.710;2023-11-21T14:24:19;14.32;;;12.13;;
44000;SDS011;29660;42.892;24.710;2023-11-21T14:29:41;26.15;;;21.00;;
44000;SDS011;29660;42.892;24.710;2023-11-21T14:35:06;45.95;;;32.75;;
44000;SDS011;29660;42.892;24.710;2023-11-21T14:40:31;61.13;;;43.83;;
44000;SDS011;29660;42.892;24.710;2023-11-21T14:45:55;53.95;;;38.63;;
44000;SDS011;29660;42.892;24.710;2023-11-21T14:51:21;63.40;;;45.47;;
44000;SDS011;29660;42.892;24.710;2023-11-21T14:56:43;46.58;;;38.80;;
44000;SDS011;29660;42.892;24.710;2023-11-21T15:02:07;119.40;;;84.75;;
44000;SDS011;29660;42.892;24.710;2023-11-21T15:07:43;65.95;;;50.72;;
44000;SDS011;29660;42.892;24.710;2023-11-21T15:13:07;100.25;;;75.38;;
44000;SDS011;29660;42.892;24.710;2023-11-21T15:18:32;206.82;;;166.82;;
44000;SDS011;29660;42.892;24.710;2023-11-21T15:23:56;417.02;;;346.23;;
44000;SDS011;29660;42.892;24.710;2023-11-21T15:29:19;155.18;;;113.53;;
44000;SDS011;29660;42.892;24.710;2023-11-21T15:34:43;110.53;;;83.00;;
44000;SDS011;29660;42.892;24.710;2023-11-21T15:40:05;172.15;;;127.18;;
44000;SDS011;29660;42.892;24.710;2023-11-21T15:45:30;123.70;;;93.55;;
44000;SDS011;29660;42.892;24.710;2023-11-21T15:50:52;141.05;;;104.15;;
44000;SDS011;29660;42.892;24.710;2023-11-21T15:56:18;142.40;;;103.43;;
44000;SDS011;29660;42.892;24.710;2023-11-21T16:01:41;184.63;;;130.18;;
44000;SDS011;29660;42.892;24.710;2023-11-21T16:07:05;259.63;;;194.02;;
44000;SDS011;29660;42.892;24.710;2023-11-21T16:12:28;208.23;;;157.25;;
44000;SDS011;29660;42.892;24.710;2023-11-21T16:17:50;248.98;;;192.70;;
44000;SDS011;29660;42.892;24.710;2023-11-21T16:23:13;378.70;;;257.15;;
44000;SDS011;29660;42.892;24.710;2023-11-21T16:28:38;321.92;;;225.90;;
44000;SDS011;29660;42.892;24.710;2023-11-21T16:34:02;266.85;;;185.45;;
44000;SDS011;29660;42.892;24.710;2023-11-21T16:39:40;236.60;;;168.85;;
44000;SDS011;29660;42.892;24.710;2023-11-21T16:45:04;252.00;;;179.55;;
44000;SDS011;29660;42.892;24.710;2023-11-21T16:50:27;304.00;;;216.23;;
44000;SDS011;29660;42.892;24.710;2023-11-21T16:55:49;288.85;;;213.48;;
44000;SDS011;29660;42.892;24.710;2023-11-21T17:01:12;222.43;;;161.68;;
44000;SDS011;29660;42.892;24.710;2023-11-21T17:06:34;265.30;;;199.30;;
44000;SDS011;29660;42.892;24.710;2023-11-21T17:11:57;273.85;;;209.02;;
44000;SDS011;29660;42.892;24.710;2023-11-21T17:17:22;327.90;;;248.50;;
44000;SDS011;29660;42.892;24.710;2023-11-21T17:22:44;286.38;;;224.38;;
44000;SDS011;29660;42.892;24.710;2023-11-21T17:28:06;305.20;;;237.45;;
44000;SDS011;29660;42.892;24.710;2023-11-21T17:33:28;238.35;;;184.20;;
44000;SDS011;29660;42.892;24.710;2023-11-21T17:38:50;259.83;;;198.38;;
44000;SDS011;29660;42.892;24.710;2023-11-21T17:44:14;266.23;;;206.95;;
44000;SDS011;29660;42.892;24.710;2023-11-21T17:49:36;261.38;;;206.48;;
44000;SDS011;29660;42.892;24.710;2023-11-21T17:55:00;227.88;;;174.57;;
44000;SDS011;29660;42.892;24.710;2023-11-21T18:00:23;234.02;;;182.23;;
44000;SDS011;29660;42.892;24.710;2023-11-21T18:05:48;212.18;;;168.75;;
44000;SDS011;29660;42.892;24.710;2023-11-21T18:11:10;335.13;;;244.73;;
44000;SDS011;29660;42.892;24.710;2023-11-21T18:16:33;188.50;;;148.93;;
44000;SDS011;29660;42.892;24.710;2023-11-21T18:21:56;246.07;;;192.73;;
44000;SDS011;29660;42.892;24.710;2023-11-21T18:27:19;235.18;;;175.52;;
44000;SDS011;29660;42.892;24.710;2023-11-21T18:32:42;257.38;;;194.82;;
44000;SDS011;29660;42.892;24.710;2023-11-21T18:38:05;442.20;;;271.90;;
44000;SDS011;29660;42.892;24.710;2023-11-21T18:43:27;354.38;;;250.20;;
44000;SDS011;29660;42.892;24.710;2023-11-21T18:48:49;212.57;;;160.65;;
44000;SDS011;29660;42.892;24.710;2023-11-21T18:54:12;245.15;;;187.57;;
44000;SDS011;29660;42.892;24.710;2023-11-21T18:59:35;218.73;;;165.07;;
44000;SDS011;29660;42.892;24.710;2023-11-21T19:04:57;202.80;;;158.30;;
44000;SDS011;29660;42.892;24.710;2023-11-21T19:10:21;167.35;;;129.65;;
44000;SDS011;29660;42.892;24.710;2023-11-21T19:15:44;206.27;;;160.00;;
44000;SDS011;29660;42.892;24.710;2023-11-21T19:21:11;202.80;;;158.05;;
44000;SDS011;29660;42.892;24.710;2023-11-21T19:26:36;213.07;;;168.02;;
44000;SDS011;29660;42.892;24.710;2023-11-21T19:32:00;153.05;;;119.15;;
44000;SDS011;29660;42.892;24.710;2023-11-21T19:37:22;161.52;;;126.82;;
44000;SDS011;29660;42.892;24.710;2023-11-21T19:42:44;222.90;;;173.95;;
44000;SDS011;29660;42.892;24.710;2023-11-21T19:48:06;176.38;;;134.55;;
44000;SDS011;29660;42.892;24.710;2023-11-21T19:53:30;172.75;;;130.73;;
44000;SDS011;29660;42.892;24.710;2023-11-21T19:58:53;157.38;;;120.07;;
44000;SDS011;29660;42.892;24.710;2023-11-21T20:04:16;147.25;;;117.43;;
44000;SDS011;29660;42.892;24.710;2023-11-21T20:09:38;141.27;;;112.55;;
44000;SDS011;29660;42.892;24.710;2023-11-21T20:15:00;148.82;;;115.82;;
44000;SDS011;29660;42.892;24.710;2023-11-21T20:20:25;172.18;;;134.77;;
44000;SDS011;29660;42.892;24.710;2023-11-21T20:25:47;248.13;;;176.88;;
44000;SDS011;29660;42.892;24.710;2023-11-21T20:31:09;216.32;;;157.30;;
44000;SDS011;29660;42.892;24.710;2023-11-21T20:36:33;193.13;;;143.95;;
44000;SDS011;29660;42.892;24.710;2023-11-21T20:41:56;204.35;;;154.85;;
44000;SDS011;29660;42.892;24.710;2023-11-21T20:47:19;233.13;;;167.40;;
44000;SDS011;29660;42.892;24.710;2023-11-21T20:52:41;206.40;;;162.93;;
44000;SDS011;29660;42.892;24.710;2023-11-21T20:58:03;214.05;;;154.55;;
44000;SDS011;29660;42.892;24.710;2023-11-21T21:03:25;154.98;;;116.88;;
44000;SDS011;29660;42.892;24.710;2023-11-21T21:08:48;171.95;;;124.18;;
44000;SDS011;29660;42.892;24.710;2023-11-21T21:14:10;236.88;;;152.63;;
44000;SDS011;29660;42.892;24.710;2023-11-21T21:19:32;157.45;;;103.38;;
44000;SDS011;29660;42.892;24.710;2023-11-21T21:24:54;146.55;;;105.55;;
44000;SDS011;29660;42.892;24.710;2023-11-21T21:30:17;112.85;;;81.03;;
44000;SDS011;29660;42.892;24.710;2023-11-21T21:35:40;125.95;;;89.75;;
44000;SDS011;29660;42.892;24.710;2023-11-21T21:41:03;138.32;;;98.20;;
44000;SDS011;29660;42.892;24.710;2023-11-21T21:46:25;127.18;;;95.05;;
44000;SDS011;29660;42.892;24.710;2023-11-21T21:51:47;172.10;;;126.55;;
44000;SDS011;29660;42.892;24.710;2023-11-21T21:57:10;135.93;;;97.78;;
44000;SDS011;29660;42.892;24.710;2023-11-21T22:02:32;124.25;;;88.28;;
44000;SDS011;29660;42.892;24.710;2023-11-21T22:07:54;107.55;;;77.55;;
44000;SDS011;29660;42.892;24.710;2023-11-21T22:13:16;107.93;;;76.07;;
44000;SDS011;29660;42.892;24.710;2023-11-21T22:18:38;109.78;;;79.18;;
44000;SDS011;29660;42.892;24.710;2023-11-21T22:24:02;147.68;;;99.95;;
44000;SDS011;29660;42.892;24.710;2023-11-21T22:29:25;131.23;;;92.13;;
44000;SDS011;29660;42.892;24.710;2023-11-21T22:34:47;151.95;;;102.20;;
44000;SDS011;29660;42.892;24.710;2023-11-21T22:40:10;161.48;;;107.78;;
44000;SDS011;29660;42.892;24.710;2023-11-21T22:45:32;138.75;;;96.90;;
44000;SDS011;29660;42.892;24.710;2023-11-21T22:50:54;118.88;;;85.78;;
44000;SDS011;29660;42.892;24.710;2023-11-21T22:56:17;94.43;;;65.10;;
44000;SDS011;29660;42.892;24.710;2023-11-21T23:01:45;81.47;;;56.08;;
44000;SDS011;29660;42.892;24.710;2023-11-21T23:07:10;84.63;;;57.78;;
44000;SDS011;29660;42.892;24.710;2023-11-21T23:12:33;89.93;;;62.42;;
44000;SDS011;29660;42.892;24.710;2023-11-21T23:17:56;78.65;;;51.67;;
44000;SDS011;29660;42.892;24.710;2023-11-21T23:23:18;79.63;;;54.28;;
44000;SDS011;29660;42.892;24.710;2023-11-21T23:28:40;98.47;;;65.38;;
44000;SDS011;29660;42.892;24.710;2023-11-21T23:34:02;83.53;;;55.85;;
44000;SDS011;29660;42.892;24.710;2023-11-21T23:39:25;82.57;;;60.20;;
44000;SDS011;29660;42.892;24.710;2023-11-21T23:44:48;49.03;;;34.58;;
44000;SDS011;29660;42.892;24.710;2023-11-21T23:50:12;38.67;;;28.20;;
44000;SDS011;29660;42.892;24.710;2023-11-21T23:55:34;78.18;;;54.58;;
